Time;durP1;ratioP1;P1;durP2;ratioP2;P2;SDS_P1;SDS_P2;PMS_P1;PMS_P2;Temp;Humidity;BMP_temperature;BMP_pressure;BME280_temperature;BME280_humidity;BME280_pressure;Samples;Min_cycle;Max_cycle;Signal;HPM_P1;HPM_P2
2022/04/20 11:10:00;;;;;;;1.98;1.88;;;13.40;99.90;;;;;;5147817;27;20628;-66
2022/04/20 11:21:05;;;;;;;3.38;1.85;;;13.70;99.90;;;;;;5131890;27;20518;-66
2022/04/20 11:23:55;;;;;;;1.92;1.80;;;13.70;99.90;;;;;;5131545;28;20257;-67
2022/04/20 11:26:35;;;;;;;2.83;2.03;;;13.90;99.90;;;;;;5131635;27;20176;-67
2022/04/20 11:29:10;;;;;;;2.05;1.95;;;14.00;99.90;;;;;;5131326;28;20275;-67
2022/04/20 11:31:42;;;;;;;1.88;1.77;;;14.20;99.90;;;;;;5131432;28;20162;-66
2022/04/20 11:34:08;;;;;;;2.78;2.03;;;15.30;99.90;;;;;;5131235;28;20235;-67
2022/04/20 11:36:40;;;;;;;3.33;2.20;;;14.50;99.90;;;;;;5131306;28;20171;-67
2022/04/20 11:39:06;;;;;;;2.10;2.00;;;14.60;99.90;;;;;;5131322;28;20162;-67
2022/04/20 11:41:34;;;;;;;2.53;2.00;;;14.70;99.90;;;;;;5131190;28;20215;-67
2022/04/20 11:44:01;;;;;;;2.10;2.00;;;14.80;99.90;;;;;;5131114;27;20679;-67
2022/04/20 11:46:27;;;;;;;2.38;2.28;;;14.80;99.90;;;;;;5131124;28;20194;-66
2022/04/20 11:48:54;;;;;;;2.35;2.20;;;14.80;99.90;;;;;;5129756;28;20222;-66
2022/04/20 11:51:23;;;;;;;2.38;2.20;;;14.80;99.90;;;;;;5129770;28;20170;-67
2022/04/20 11:53:49;;;;;;;6.53;2.40;;;14.80;99.90;;;;;;5129756;28;20174;-67
2022/04/20 11:56:15;;;;;;;2.75;2.00;;;15.00;99.90;;;;;;5130876;27;20198;-67
2022/04/20 11:58:47;;;;;;;2.72;2.63;;;15.10;99.90;;;;;;5130916;28;20158;-67
2022/04/20 12:01:12;;;;;;;2.60;2.50;;;15.20;99.90;;;;;;5130865;28;20624;-67
2022/04/20 12:03:41;;;;;;;2.65;2.45;;;15.40;99.90;;;;;;5130797;28;20178;-66
2022/04/20 12:06:12;;;;;;;2.15;2.05;;;15.30;99.90;;;;;;5130699;28;20163;-67
2022/04/20 12:08:40;;;;;;;2.30;2.20;;;15.30;99.90;;;;;;5129142;28;20580;-67
2022/04/20 12:11:10;;;;;;;2.45;2.28;;;15.40;99.90;;;;;;5130655;28;20166;-67
2022/04/20 12:13:37;;;;;;;3.58;1.77;;;15.50;99.90;;;;;;5130669;28;20633;-67
2022/04/20 12:16:08;;;;;;;2.88;2.67;;;15.60;99.90;;;;;;5130575;28;20190;-67
2022/04/20 12:18:36;;;;;;;3.85;2.60;;;15.70;99.90;;;;;;5130493;28;20163;-67
2022/04/20 12:21:07;;;;;;;2.75;2.65;;;15.90;99.90;;;;;;5118551;28;20163;-67
2022/04/20 12:23:37;;;;;;;4.68;2.85;;;16.00;99.90;;;;;;5116719;28;20190;-66
2022/04/20 12:26:04;;;;;;;3.67;2.95;;;16.10;99.90;;;;;;5116620;28;20159;-67
2022/04/20 12:28:41;;;;;;;2.33;2.22;;;16.20;99.90;;;;;;5116490;28;20235;-67
2022/04/20 12:31:09;;;;;;;4.82;2.63;;;16.40;99.90;;;;;;5116539;28;20163;-66
2022/04/20 12:33:37;;;;;;;3.17;2.97;;;16.40;99.90;;;;;;5116493;28;20182;-67
2022/04/20 12:36:03;;;;;;;2.85;2.60;;;16.60;99.90;;;;;;5116415;28;20238;-67
2022/04/20 12:38:29;;;;;;;4.38;2.97;;;16.60;99.90;;;;;;5116407;28;20254;-67
2022/04/20 12:40:55;;;;;;;3.30;3.10;;;16.70;99.90;;;;;;5115096;28;20584;-67
2022/04/20 12:43:20;;;;;;;3.47;3.03;;;16.80;99.90;;;;;;5116281;28;20771;-67
2022/04/20 12:45:46;;;;;;;3.15;2.90;;;16.80;99.90;;;;;;5116311;28;20292;-67
2022/04/20 12:48:11;;;;;;;3.35;2.92;;;16.90;99.90;;;;;;5116179;28;20190;-67
2022/04/20 12:50:45;;;;;;;5.05;2.45;;;17.00;99.90;;;;;;5116143;28;20171;-66
2022/04/20 12:53:10;;;;;;;4.20;3.20;;;17.20;99.90;;;;;;5116157;28;20170;-67
2022/04/20 13:02:01;;;;;;;3.28;2.85;;;17.30;99.90;;;;;;5116063;28;20178;-67
2022/04/20 13:04:13;;;;;;;3.17;2.85;;;17.60;99.90;;;;;;5116170;28;20564;-66
2022/04/20 13:06:39;;;;;;;3.25;3.05;;;17.70;99.90;;;;;;5115910;28;20159;-66
2022/04/20 13:09:04;;;;;;;4.97;3.30;;;17.70;99.90;;;;;;5115591;28;20792;-66
2022/04/20 13:11:30;;;;;;;3.67;3.20;;;17.90;99.90;;;;;;5115735;28;20158;-66
2022/04/20 13:13:59;;;;;;;3.20;3.00;;;17.90;99.90;;;;;;5115756;28;20246;-66
2022/04/20 13:16:25;;;;;;;3.10;2.75;;;17.80;99.90;;;;;;5115683;28;20219;-66
2022/04/20 13:18:51;;;;;;;3.20;2.95;;;17.90;99.90;;;;;;5115670;28;20624;-66
2022/04/20 13:21:16;;;;;;;3.58;3.17;;;18.00;99.90;;;;;;5115590;28;20688;-66
2022/04/20 13:23:42;;;;;;;9.52;3.33;;;18.20;99.90;;;;;;5115462;28;20249;-66
2022/04/20 13:28:54;;;;;;;3.28;3.00;;;18.20;99.90;;;;;;5115389;28;20600;-66
2022/04/20 13:31:20;;;;;;;2.97;2.85;;;18.30;99.90;;;;;;5114536;28;20190;-66
2022/04/20 13:33:46;;;;;;;2.65;2.55;;;18.40;99.90;;;;;;5115161;28;20189;-66
2022/04/20 13:36:13;;;;;;;2.60;2.47;;;18.50;99.90;;;;;;5115229;28;20158;-66
2022/04/20 13:38:38;;;;;;;3.83;3.63;;;18.70;99.90;;;;;;5115227;28;20249;-66
2022/04/20 13:41:04;;;;;;;3.22;2.97;;;18.70;99.90;;;;;;5115231;28;20260;-66
2022/04/20 13:43:30;;;;;;;3.65;3.35;;;18.80;99.90;;;;;;5115152;28;20174;-66
2022/04/20 13:45:55;;;;;;;2.85;2.75;;;18.90;99.90;;;;;;5115076;28;20635;-66
2022/04/20 13:48:21;;;;;;;3.35;3.00;;;18.90;99.90;;;;;;5114960;28;20194;-66
2022/04/20 13:50:47;;;;;;;5.15;2.85;;;18.90;99.90;;;;;;5114988;28;20192;-66
2022/04/20 13:53:12;;;;;;;3.33;3.00;;;19.00;99.90;;;;;;5114959;28;20163;-66
2022/04/20 13:55:38;;;;;;;2.70;2.60;;;19.10;99.90;;;;;;5114930;28;20159;-66
2022/04/20 13:58:04;;;;;;;3.85;2.92;;;19.10;99.90;;;;;;5115131;28;20181;-66
2022/04/20 14:00:30;;;;;;;3.45;2.97;;;19.20;99.90;;;;;;5114796;28;20171;-66
2022/04/20 14:02:57;;;;;;;3.88;3.10;;;19.30;99.90;;;;;;5114785;28;20274;-66
2022/04/20 14:05:22;;;;;;;5.32;3.05;;;19.50;99.90;;;;;;5114669;28;20647;-66
2022/04/20 14:07:48;;;;;;;4.30;2.92;;;19.60;99.90;;;;;;5114413;28;20166;-66
2022/04/20 14:10:14;;;;;;;3.00;2.80;;;19.70;99.90;;;;;;5114643;28;20223;-66
2022/04/20 14:12:41;;;;;;;6.68;2.80;;;19.70;99.90;;;;;;5114590;28;20171;-66
2022/04/20 14:15:07;;;;;;;3.05;2.72;;;19.80;99.90;;;;;;5114498;28;20173;-66
2022/04/20 14:17:32;;;;;;;3.67;2.78;;;19.80;99.90;;;;;;5114473;28;20163;-66
2022/04/20 14:19:59;;;;;;;3.08;2.88;;;19.90;99.90;;;;;;5114322;28;20200;-66
2022/04/20 14:22:24;;;;;;;3.58;2.83;;;19.90;99.90;;;;;;5114441;28;20165;-66
2022/04/20 14:32:09;;;;;;;3.40;3.15;;;19.80;99.90;;;;;;5114401;28;20231;-66
2022/04/20 14:33:04;;;;;;;3.20;3.00;;;19.80;99.90;;;;;;5114267;28;20165;-66
2022/04/20 14:35:29;;;;;;;3.63;3.25;;;19.90;99.90;;;;;;5114210;28;20170;-66
2022/04/20 14:37:55;;;;;;;3.70;3.13;;;19.90;99.90;;;;;;5114130;28;20162;-66
2022/04/20 14:40:20;;;;;;;3.28;3.05;;;19.90;99.90;;;;;;5112872;28;20706;-66
2022/04/20 14:42:46;;;;;;;3.33;3.00;;;20.20;99.90;;;;;;5112507;28;20253;-66
2022/04/20 14:45:11;;;;;;;7.88;3.28;;;20.10;99.90;;;;;;5114083;28;20201;-66
2022/04/20 14:47:37;;;;;;;2.83;2.60;;;20.10;99.90;;;;;;5113962;28;20174;-66
2022/04/20 14:50:03;;;;;;;3.50;3.20;;;20.20;99.90;;;;;;5113990;28;20555;-66
2022/04/20 14:52:28;;;;;;;3.95;3.47;;;20.20;99.90;;;;;;5113966;28;20170;-66
2022/04/20 14:54:54;;;;;;;9.73;3.88;;;20.10;99.90;;;;;;5113955;28;20167;-66
2022/04/20 14:57:21;;;;;;;3.33;3.00;;;19.90;99.90;;;;;;5113899;28;20166;-66
2022/04/20 14:59:46;;;;;;;3.80;3.58;;;19.80;99.90;;;;;;5112648;28;20181;-66
2022/04/20 15:02:15;;;;;;;3.30;3.10;;;19.90;99.90;;;;;;5113847;28;20175;-66
2022/04/20 15:04:40;;;;;;;3.38;3.10;;;19.80;99.90;;;;;;5113786;28;20711;-66
2022/04/20 15:07:06;;;;;;;4.53;3.53;;;19.90;99.90;;;;;;5113819;28;20253;-66
2022/04/20 15:09:31;;;;;;;3.55;3.30;;;20.00;99.90;;;;;;5113525;28;20690;-66
2022/04/20 15:12:00;;;;;;;4.13;3.08;;;20.00;99.90;;;;;;5113733;28;20163;-66
2022/04/20 15:14:26;;;;;;;3.67;3.38;;;20.10;99.90;;;;;;5113728;28;20167;-66
2022/04/20 15:16:53;;;;;;;3.88;3.63;;;20.10;99.90;;;;;;5113644;28;20250;-66
2022/04/20 15:19:19;;;;;;;4.22;3.28;;;20.10;99.90;;;;;;5113669;28;20170;-66
2022/04/20 15:21:45;;;;;;;3.70;3.40;;;20.10;99.90;;;;;;5113627;28;20186;-66
2022/04/20 15:24:11;;;;;;;7.95;3.47;;;20.10;99.90;;;;;;5113640;28;20170;-66
2022/04/20 15:26:37;;;;;;;8.52;3.45;;;20.30;99.90;;;;;;5113509;28;20166;-66
2022/04/20 15:29:03;;;;;;;4.05;3.60;;;20.40;99.90;;;;;;5113514;28;20715;-66
2022/04/20 15:31:29;;;;;;;4.05;3.03;;;20.30;99.90;;;;;;5113462;28;20193;-66
2022/04/20 15:33:55;;;;;;;4.07;3.38;;;20.40;99.90;;;;;;5113504;28;20159;-66
2022/04/20 15:36:21;;;;;;;4.82;4.43;;;20.30;99.90;;;;;;5113517;28;20171;-66
2022/04/20 15:38:49;;;;;;;3.90;3.60;;;20.20;99.90;;;;;;5112247;28;20259;-66
2022/04/20 15:41:15;;;;;;;4.15;3.85;;;20.20;99.90;;;;;;5113453;28;20191;-66
2022/04/20 15:43:40;;;;;;;4.97;3.85;;;20.20;99.90;;;;;;5113396;28;20620;-66
2022/04/20 15:46:06;;;;;;;4.43;4.03;;;20.30;99.90;;;;;;5112173;28;20201;-66
2022/04/20 15:48:32;;;;;;;4.80;3.40;;;20.30;99.90;;;;;;5113362;28;20257;-66
2022/04/20 15:51:00;;;;;;;4.00;3.80;;;20.30;99.90;;;;;;5113321;28;20170;-66
2022/04/20 15:53:27;;;;;;;4.93;4.53;;;20.40;99.90;;;;;;5113325;28;20165;-66
2022/04/20 16:01:22;;;;;;;7.00;3.83;;;20.10;99.90;;;;;;5117230;28;20231;-66
2022/04/20 16:03:47;;;;;;;4.03;3.42;;;20.20;99.90;;;;;;5117097;28;20198;-66
2022/04/20 16:06:13;;;;;;;4.30;3.95;;;20.10;99.90;;;;;;5116987;28;20217;-66
2022/04/20 16:08:39;;;;;;;4.00;3.70;;;20.10;99.90;;;;;;5116715;28;20214;-66
2022/04/20 16:11:04;;;;;;;4.13;3.80;;;20.20;99.90;;;;;;5117020;28;20167;-66
2022/04/20 16:13:30;;;;;;;4.25;3.75;;;20.30;99.90;;;;;;5116896;28;20654;-66
2022/04/20 16:15:55;;;;;;;3.30;3.10;;;20.30;99.90;;;;;;5116889;28;20243;-66
2022/04/20 16:18:21;;;;;;;4.13;3.72;;;20.20;99.90;;;;;;5116815;28;20167;-66
2022/04/20 16:20:47;;;;;;;3.80;3.20;;;20.20;99.90;;;;;;5116692;28;20733;-66
2022/04/20 16:23:13;;;;;;;3.85;3.55;;;20.30;99.90;;;;;;5116680;28;20163;-66
2022/04/20 16:25:39;;;;;;;4.60;3.47;;;20.30;99.90;;;;;;5116723;28;20167;-66
2022/04/20 16:28:05;;;;;;;4.40;4.00;;;20.20;99.90;;;;;;5116594;28;20289;-66
2022/04/20 16:30:38;;;;;;;4.00;3.70;;;20.20;99.90;;;;;;5116724;28;20536;-66
2022/04/20 16:33:04;;;;;;;3.35;3.15;;;20.10;99.90;;;;;;5116529;28;20173;-66
2022/04/20 16:35:30;;;;;;;3.67;3.38;;;20.10;99.90;;;;;;5116497;28;20163;-66
2022/04/20 16:37:56;;;;;;;3.65;3.45;;;20.10;99.90;;;;;;5116424;28;20174;-66
2022/04/20 16:40:22;;;;;;;3.47;3.28;;;19.90;99.90;;;;;;5116448;28;20163;-66
2022/04/20 16:42:48;;;;;;;3.30;3.10;;;19.90;99.90;;;;;;5116351;28;20249;-66
2022/04/20 16:45:14;;;;;;;2.80;2.70;;;19.80;99.90;;;;;;5116334;28;20233;-66
2022/04/20 16:47:43;;;;;;;15.95;4.32;;;19.70;99.90;;;;;;5116434;28;20166;-67
2022/04/20 16:50:11;;;;;;;3.28;3.08;;;19.70;99.90;;;;;;5115049;28;20182;-66
2022/04/20 16:52:38;;;;;;;4.55;2.85;;;19.70;99.90;;;;;;5115981;28;20190;-66
2022/04/20 16:55:08;;;;;;;5.53;3.05;;;19.60;99.90;;;;;;5116237;28;20194;-66
2022/04/20 16:57:35;;;;;;;3.38;3.17;;;19.70;99.90;;;;;;5115893;28;20193;-66
2022/04/20 17:00:10;;;;;;;3.67;3.33;;;19.70;99.90;;;;;;5115909;28;20170;-66
2022/04/20 17:02:38;;;;;;;3.88;3.10;;;19.60;99.90;;;;;;5115844;28;20177;-66
2022/04/20 17:05:04;;;;;;;3.30;2.90;;;19.70;99.90;;;;;;5115786;28;20173;-66
2022/04/20 17:07:30;;;;;;;3.50;3.30;;;19.60;99.90;;;;;;5115791;28;20324;-66
2022/04/20 17:09:55;;;;;;;4.05;3.72;;;19.60;99.90;;;;;;5115580;28;20310;-66
2022/04/20 17:12:21;;;;;;;3.65;3.38;;;19.40;99.90;;;;;;5115726;28;20159;-67
2022/04/20 17:14:47;;;;;;;3.85;2.78;;;19.40;99.90;;;;;;5114407;28;20674;-66
2022/04/20 17:17:12;;;;;;;2.70;2.60;;;19.20;99.90;;;;;;5115719;28;20167;-66
2022/04/20 17:19:38;;;;;;;3.28;3.08;;;19.10;99.90;;;;;;5115666;28;20170;-66
2022/04/20 17:27:34;;;;;;;2.80;2.70;;;18.80;99.90;;;;;;5115790;28;20257;-66
2022/04/20 17:30:00;;;;;;;4.10;2.72;;;18.80;99.90;;;;;;5115400;28;20606;-66
2022/04/20 17:32:26;;;;;;;5.43;3.28;;;18.70;99.90;;;;;;5115417;28;20163;-66
2022/04/20 17:36:37;;;;;;;3.35;3.05;;;18.60;99.90;;;;;;5115391;28;20673;-66
2022/04/20 17:37:37;;;;;;;4.68;2.50;;;18.60;99.90;;;;;;5115276;28;20598;-66
2022/04/20 17:40:03;;;;;;;3.20;3.00;;;18.50;99.90;;;;;;5115204;28;20170;-66
2022/04/20 17:42:29;;;;;;;3.08;2.53;;;18.30;99.90;;;;;;5115243;28;20162;-66
2022/04/20 17:44:55;;;;;;;4.47;2.80;;;18.10;99.90;;;;;;5115085;28;20170;-66
2022/04/20 17:47:20;;;;;;;4.00;2.15;;;18.00;99.90;;;;;;5115196;28;20170;-66
2022/04/20 17:49:46;;;;;;;2.90;2.70;;;18.00;99.90;;;;;;5114954;28;20198;-66
2022/04/20 17:52:12;;;;;;;2.63;2.42;;;17.80;99.90;;;;;;5115018;28;20237;-66
2022/04/20 17:54:38;;;;;;;2.42;2.22;;;17.70;99.90;;;;;;5113665;28;20167;-66
2022/04/20 17:57:03;;;;;;;2.35;2.25;;;17.60;99.90;;;;;;5114834;28;20182;-66
2022/04/20 17:59:30;;;;;;;4.10;2.42;;;17.30;99.90;;;;;;5114837;28;20639;-66
2022/04/20 18:01:56;;;;;;;3.28;2.45;;;17.30;99.90;;;;;;5114809;28;20576;-66
2022/04/20 18:04:22;;;;;;;2.70;2.50;;;16.90;99.90;;;;;;5113504;28;20257;-66
2022/04/20 18:06:48;;;;;;;4.07;2.20;;;16.70;99.90;;;;;;5114687;28;20171;-66
2022/04/20 18:09:14;;;;;;;2.90;2.58;;;16.50;99.90;;;;;;5114407;28;20573;-66
2022/04/20 18:11:41;;;;;;;5.93;3.53;;;16.30;99.90;;;;;;5114570;28;20165;-66
2022/04/20 18:14:07;;;;;;;5.28;2.90;;;16.10;99.90;;;;;;5114577;28;20198;-66
2022/04/20 18:16:33;;;;;;;4.07;2.63;;;15.80;99.90;;;;;;5113251;28;20199;-66
2022/04/20 18:18:59;;;;;;;3.35;3.15;;;15.60;99.90;;;;;;5113964;28;20173;-66
2022/04/20 18:21:25;;;;;;;7.05;2.40;;;15.40;99.90;;;;;;5114467;28;20188;-66
2022/04/20 18:23:51;;;;;;;2.15;2.05;;;15.20;99.90;;;;;;5114939;28;20174;-66
2022/04/20 18:26:17;;;;;;;2.45;2.35;;;15.10;99.90;;;;;;5114412;28;20175;-66
2022/04/20 18:28:42;;;;;;;2.47;2.28;;;14.80;99.90;;;;;;5114278;28;20534;-66
2022/04/20 18:31:08;;;;;;;4.15;2.58;;;14.60;99.90;;;;;;5114262;28;20174;-66
2022/04/20 18:33:34;;;;;;;2.63;2.35;;;14.50;99.90;;;;;;5114274;28;20185;-66
2022/04/20 18:36:00;;;;;;;2.60;2.50;;;14.30;99.90;;;;;;5114182;28;20167;-66
